<?xml version="1.0" encoding="UTF-8" standalone="no" ?>
<gpx xmlns="http://www.topografix.com/GPX/1/1" xmlns:xsi="http://www.w3.org/2001/XMLSchema-instance" xsi:schemaLocation="http://www.topografix.com/GPX/1/1 http://www.topografix.com/GPX/1/1/gpx.xsd" version="1.1" creator="VisuGPX - https://www.visugpx.com">
  <metadata>
    <name>La Pagèze - Bouisset - Pech de la Bado</name>
    <desc><![CDATA[2017-05 - La Pagèze - Bouisset - Puech de la Bado

[b]album[/b] : [url]https://goo.gl/photos/FrfV81PbWUvwYhXb9[/url]
[img]https://2.bp.blogspot.com/-j5-7MuUJcnY/WSBm2Nae7GI/AAAAAAAATUA/qelhnqCkEhcworBwTR6_egrq5rYwKaNTwCLcB/s1600/2017-05_nord-est_massif-clape_i.JPG[/img]
[b]Idées de randonnées dans la même région[/b]
Parcours : [url]https://www.visugpx.com/membres/24856/littoral/[/url]
Photos : [url]https://jcvertygo.blogspot.com/p/littoral.html[/url]]]></desc>
  </metadata>
  <trk>
    <name><![CDATA[La Pagèze - Bouisset - Pech de la Bado_1]]></name>
    <trkseg>
      <trkpt lat="43.23455" lon="3.18575">
        <ele>35.6</ele>
        <time>2017-05-19T09:17:01Z</time>
      </trkpt>
      <trkpt lat="43.23456" lon="3.18567">
        <ele>35.6</ele>
        <time>2017-05-19T09:17:06Z</time>
      </trkpt>
      <trkpt lat="43.23456" lon="3.1856">
        <ele>35.705671865811</ele>
        <time>2017-05-19T09:17:11Z</time>
      </trkpt>
      <trkpt lat="43.23456" lon="3.18553">
        <ele>35.705671865811</ele>
        <time>2017-05-19T09:17:16Z</time>
      </trkpt>
      <trkpt lat="43.23457" lon="3.18545">
        <ele>35.885100141684</ele>
        <time>2017-05-19T09:17:21Z</time>
      </trkpt>
      <trkpt lat="43.23458" lon="3.18523">
        <ele>36.232654717449</ele>
        <time>2017-05-19T09:17:51Z</time>
      </trkpt>
      <trkpt lat="43.23462" lon="3.18511">
        <ele>36.600020911283</ele>
        <time>2017-05-19T09:18:08Z</time>
      </trkpt>
      <trkpt lat="43.23461" lon="3.18505">
        <ele>36.600020911283</ele>
        <time>2017-05-19T09:18:08Z</time>
      </trkpt>
      <trkpt lat="43.23473" lon="3.18474">
        <ele>36.977238840848</ele>
        <time>2017-05-19T09:18:33Z</time>
      </trkpt>
      <trkpt lat="43.23474" lon="3.1847">
        <ele>36.977238840848</ele>
        <time>2017-05-19T09:18:37Z</time>
      </trkpt>
      <trkpt lat="43.23474" lon="3.18469">
        <ele>36.977238840848</ele>
        <time>2017-05-19T09:18:37Z</time>
      </trkpt>
      <trkpt lat="43.23479" lon="3.18452">
        <ele>37.36120762068</ele>
        <time>2017-05-19T09:18:49Z</time>
      </trkpt>
      <trkpt lat="43.23479" lon="3.18451">
        <ele>37.36120762068</ele>
        <time>2017-05-19T09:18:54Z</time>
      </trkpt>
      <trkpt lat="43.23481" lon="3.18444">
        <ele>37.36120762068</ele>
        <time>2017-05-19T09:18:56Z</time>
      </trkpt>
      <trkpt lat="43.23486" lon="3.18434">
        <ele>37.78638949462</ele>
        <time>2017-05-19T09:19:14Z</time>
      </trkpt>
      <trkpt lat="43.23489" lon="3.18424">
        <ele>37.78638949462</ele>
        <time>2017-05-19T09:19:14Z</time>
      </trkpt>
      <trkpt lat="43.23492" lon="3.18413">
        <ele>38.279319366046</ele>
        <time>2017-05-19T09:19:31Z</time>
      </trkpt>
      <trkpt lat="43.23492" lon="3.18409">
        <ele>38.279319366046</ele>
        <time>2017-05-19T09:19:31Z</time>
      </trkpt>
      <trkpt lat="43.23493" lon="3.18364">
        <ele>38.999157041231</ele>
        <time>2017-05-19T09:20:08Z</time>
      </trkpt>
      <trkpt lat="43.23492" lon="3.18344">
        <ele>39.772586396399</ele>
        <time>2017-05-19T09:20:16Z</time>
      </trkpt>
      <trkpt lat="43.23491" lon="3.18324">
        <ele>40.645685073728</ele>
        <time>2017-05-19T09:20:41Z</time>
      </trkpt>
      <trkpt lat="43.23491" lon="3.18313">
        <ele>40.645685073728</ele>
        <time>2017-05-19T09:20:41Z</time>
      </trkpt>
      <trkpt lat="43.23486" lon="3.18301">
        <ele>41.658481442532</ele>
        <time>2017-05-19T09:20:58Z</time>
      </trkpt>
      <trkpt lat="43.23483" lon="3.18292">
        <ele>41.658481442532</ele>
        <time>2017-05-19T09:20:58Z</time>
      </trkpt>
      <trkpt lat="43.23475" lon="3.1827">
        <ele>42.91219602074</ele>
        <time>2017-05-19T09:21:20Z</time>
      </trkpt>
      <trkpt lat="43.23472" lon="3.18265">
        <ele>42.91219602074</ele>
        <time>2017-05-19T09:21:21Z</time>
      </trkpt>
      <trkpt lat="43.23458" lon="3.18232">
        <ele>44.579410913471</ele>
        <time>2017-05-19T09:21:49Z</time>
      </trkpt>
      <trkpt lat="43.23457" lon="3.18231">
        <ele>44.579410913471</ele>
        <time>2017-05-19T09:21:55Z</time>
      </trkpt>
      <trkpt lat="43.23444" lon="3.18206">
        <ele>46.329612803801</ele>
        <time>2017-05-19T09:22:22Z</time>
      </trkpt>
      <trkpt lat="43.23444" lon="3.18194">
        <ele>46.329612803801</ele>
        <time>2017-05-19T09:22:22Z</time>
      </trkpt>
      <trkpt lat="43.23445" lon="3.18193">
        <ele>48.0118715399</ele>
        <time>2017-05-19T09:22:23Z</time>
      </trkpt>
      <trkpt lat="43.23444" lon="3.18185">
        <ele>48.0118715399</ele>
        <time>2017-05-19T09:22:39Z</time>
      </trkpt>
      <trkpt lat="43.23429" lon="3.18121">
        <ele>49.804084086135</ele>
        <time>2017-05-19T09:23:36Z</time>
      </trkpt>
      <trkpt lat="43.23428" lon="3.18117">
        <ele>49.804084086135</ele>
        <time>2017-05-19T09:23:38Z</time>
      </trkpt>
      <trkpt lat="43.23426" lon="3.18111">
        <ele>49.804084086135</ele>
        <time>2017-05-19T09:23:43Z</time>
      </trkpt>
      <trkpt lat="43.23417" lon="3.18088">
        <ele>51.476936598435</ele>
        <time>2017-05-19T09:24:06Z</time>
      </trkpt>
      <trkpt lat="43.23415" lon="3.1808">
        <ele>51.476936598435</ele>
        <time>2017-05-19T09:24:06Z</time>
      </trkpt>
      <trkpt lat="43.23406" lon="3.18067">
        <ele>53.022438919662</ele>
        <time>2017-05-19T09:24:24Z</time>
      </trkpt>
      <trkpt lat="43.23401" lon="3.18058">
        <ele>53.022438919662</ele>
        <time>2017-05-19T09:24:24Z</time>
      </trkpt>
      <trkpt lat="43.23396" lon="3.18047">
        <ele>54.483087992896</ele>
        <time>2017-05-19T09:24:41Z</time>
      </trkpt>
      <trkpt lat="43.23389" lon="3.18036">
        <ele>55.773809158913</ele>
        <time>2017-05-19T09:24:41Z</time>
      </trkpt>
      <trkpt lat="43.23388" lon="3.18034">
        <ele>55.773809158913</ele>
        <time>2017-05-19T09:24:42Z</time>
      </trkpt>
      <trkpt lat="43.23366" lon="3.18009">
        <ele>57.004426082233</ele>
        <time>2017-05-19T09:25:07Z</time>
      </trkpt>
      <trkpt lat="43.23357" lon="3.17994">
        <ele>58.106304079301</ele>
        <time>2017-05-19T09:25:19Z</time>
      </trkpt>
      <trkpt lat="43.23357" lon="3.17993">
        <ele>58.106304079301</ele>
        <time>2017-05-19T09:25:21Z</time>
      </trkpt>
      <trkpt lat="43.23323" lon="3.17929">
        <ele>59.581030661506</ele>
        <time>2017-05-19T09:26:33Z</time>
      </trkpt>
      <trkpt lat="43.23321" lon="3.17916">
        <ele>60.906462730147</ele>
        <time>2017-05-19T09:26:38Z</time>
      </trkpt>
      <trkpt lat="43.23306" lon="3.17881">
        <ele>61.997105870787</ele>
        <time>2017-05-19T09:27:08Z</time>
      </trkpt>
      <trkpt lat="43.23299" lon="3.17872">
        <ele>61.997105870787</ele>
        <time>2017-05-19T09:27:10Z</time>
      </trkpt>
      <trkpt lat="43.23286" lon="3.17847">
        <ele>62.94764376122</ele>
        <time>2017-05-19T09:27:28Z</time>
      </trkpt>
      <trkpt lat="43.23285" lon="3.17844">
        <ele>62.94764376122</ele>
        <time>2017-05-19T09:27:34Z</time>
      </trkpt>
      <trkpt lat="43.2328" lon="3.1782">
        <ele>63.728947326051</ele>
        <time>2017-05-19T09:27:59Z</time>
      </trkpt>
      <trkpt lat="43.2328" lon="3.17805">
        <ele>64.398218268942</ele>
        <time>2017-05-19T09:27:59Z</time>
      </trkpt>
      <trkpt lat="43.23274" lon="3.1777">
        <ele>65.146010117819</ele>
        <time>2017-05-19T09:28:33Z</time>
      </trkpt>
      <trkpt lat="43.23268" lon="3.17756">
        <ele>65.923766109992</ele>
        <time>2017-05-19T09:28:33Z</time>
      </trkpt>
      <trkpt lat="43.23263" lon="3.17744">
        <ele>66.603954830026</ele>
        <time>2017-05-19T09:28:45Z</time>
      </trkpt>
      <trkpt lat="43.23261" lon="3.17737">
        <ele>66.603954830026</ele>
        <time>2017-05-19T09:28:46Z</time>
      </trkpt>
      <trkpt lat="43.23255" lon="3.17716">
        <ele>67.207381432336</ele>
        <time>2017-05-19T09:29:06Z</time>
      </trkpt>
      <trkpt lat="43.23256" lon="3.17708">
        <ele>67.207381432336</ele>
        <time>2017-05-19T09:29:06Z</time>
      </trkpt>
      <trkpt lat="43.23254" lon="3.17695">
        <ele>67.753263511206</ele>
        <time>2017-05-19T09:29:15Z</time>
      </trkpt>
      <trkpt lat="43.23254" lon="3.17694">
        <ele>67.753263511206</ele>
        <time>2017-05-19T09:29:16Z</time>
      </trkpt>
      <trkpt lat="43.23253" lon="3.17691">
        <ele>67.753263511206</ele>
        <time>2017-05-19T09:29:18Z</time>
      </trkpt>
      <trkpt lat="43.23253" lon="3.17688">
        <ele>67.753263511206</ele>
        <time>2017-05-19T09:29:21Z</time>
      </trkpt>
      <trkpt lat="43.23252" lon="3.17673">
        <ele>68.273579267165</ele>
        <time>2017-05-19T09:29:39Z</time>
      </trkpt>
      <trkpt lat="43.23249" lon="3.17662">
        <ele>68.273579267165</ele>
        <time>2017-05-19T09:29:39Z</time>
      </trkpt>
      <trkpt lat="43.23248" lon="3.17507">
        <ele>69.667532691924</ele>
        <time>2017-05-19T09:31:21Z</time>
      </trkpt>
      <trkpt lat="43.23257" lon="3.17399">
        <ele>70.895856006243</ele>
        <time>2017-05-19T09:32:39Z</time>
      </trkpt>
      <trkpt lat="43.23257" lon="3.17394">
        <ele>70.895856006243</ele>
        <time>2017-05-19T09:32:42Z</time>
      </trkpt>
      <trkpt lat="43.23246" lon="3.17381">
        <ele>71.967560728687</ele>
        <time>2017-05-19T09:32:58Z</time>
      </trkpt>
      <trkpt lat="43.2324" lon="3.17381">
        <ele>71.967560728687</ele>
        <time>2017-05-19T09:33:17Z</time>
      </trkpt>
      <trkpt lat="43.23237" lon="3.1738">
        <ele>72.891285296075</ele>
        <time>2017-05-19T09:33:32Z</time>
      </trkpt>
      <trkpt lat="43.23195" lon="3.17339">
        <ele>73.661196232118</ele>
        <time>2017-05-19T09:34:34Z</time>
      </trkpt>
      <trkpt lat="43.23164" lon="3.17264">
        <ele>74.330201798448</ele>
        <time>2017-05-19T09:35:23Z</time>
      </trkpt>
      <trkpt lat="43.23115" lon="3.17191">
        <ele>75.619305863958</ele>
        <time>2017-05-19T09:36:26Z</time>
      </trkpt>
      <trkpt lat="43.23108" lon="3.17174">
        <ele>76.699480611734</ele>
        <time>2017-05-19T09:36:41Z</time>
      </trkpt>
      <trkpt lat="43.23105" lon="3.17172">
        <ele>76.699480611734</ele>
        <time>2017-05-19T09:36:48Z</time>
      </trkpt>
      <trkpt lat="43.23086" lon="3.17156">
        <ele>77.508985738279</ele>
        <time>2017-05-19T09:37:01Z</time>
      </trkpt>
      <trkpt lat="43.23063" lon="3.17111">
        <ele>78.376619929938</ele>
        <time>2017-05-19T09:37:37Z</time>
      </trkpt>
      <trkpt lat="43.23061" lon="3.17107">
        <ele>78.376619929938</ele>
        <time>2017-05-19T09:37:41Z</time>
      </trkpt>
      <trkpt lat="43.23046" lon="3.17078">
        <ele>79.329108928565</ele>
        <time>2017-05-19T09:38:10Z</time>
      </trkpt>
      <trkpt lat="43.23043" lon="3.1707">
        <ele>79.329108928565</ele>
        <time>2017-05-19T09:38:16Z</time>
      </trkpt>
      <trkpt lat="43.23027" lon="3.17038">
        <ele>80.450859254318</ele>
        <time>2017-05-19T09:38:54Z</time>
      </trkpt>
      <trkpt lat="43.23021" lon="3.17029">
        <ele>81.399770232227</ele>
        <time>2017-05-19T09:38:58Z</time>
      </trkpt>
      <trkpt lat="43.23004" lon="3.16991">
        <ele>82.35344518076</ele>
        <time>2017-05-19T09:39:33Z</time>
      </trkpt>
      <trkpt lat="43.23004" lon="3.16991">
        <ele>82.35344518076</ele>
        <time>2017-05-19T09:39:42Z</time>
      </trkpt>
      <trkpt lat="43.2298" lon="3.16925">
        <ele>83.08563531687</ele>
        <time>2017-05-19T09:40:49Z</time>
      </trkpt>
      <trkpt lat="43.22975" lon="3.16918">
        <ele>83.08563531687</ele>
        <time>2017-05-19T09:40:49Z</time>
      </trkpt>
      <trkpt lat="43.22971" lon="3.16904">
        <ele>83.870096887312</ele>
        <time>2017-05-19T09:43:17Z</time>
      </trkpt>
      <trkpt lat="43.22971" lon="3.16902">
        <ele>83.870096887312</ele>
        <time>2017-05-19T09:43:25Z</time>
      </trkpt>
      <trkpt lat="43.22968" lon="3.16891">
        <ele>84.673577665103</ele>
        <time>2017-05-19T09:43:33Z</time>
      </trkpt>
      <trkpt lat="43.22949" lon="3.16859">
        <ele>85.450049303527</ele>
        <time>2017-05-19T09:44:37Z</time>
      </trkpt>
      <trkpt lat="43.22952" lon="3.1683">
        <ele>86.051487371968</ele>
        <time>2017-05-19T09:45:04Z</time>
      </trkpt>
      <trkpt lat="43.2294" lon="3.1678">
        <ele>86.523165875601</ele>
        <time>2017-05-19T09:46:00Z</time>
      </trkpt>
      <trkpt lat="43.22928" lon="3.16761">
        <ele>86.997589866359</ele>
        <time>2017-05-19T09:46:11Z</time>
      </trkpt>
      <trkpt lat="43.22925" lon="3.16754">
        <ele>86.997589866359</ele>
        <time>2017-05-19T09:46:16Z</time>
      </trkpt>
      <trkpt lat="43.22907" lon="3.16731">
        <ele>87.611433936031</ele>
        <time>2017-05-19T09:46:50Z</time>
      </trkpt>
      <trkpt lat="43.22902" lon="3.16723">
        <ele>87.611433936031</ele>
        <time>2017-05-19T09:47:06Z</time>
      </trkpt>
      <trkpt lat="43.22897" lon="3.16719">
        <ele>88.189534571954</ele>
        <time>2017-05-19T09:47:07Z</time>
      </trkpt>
      <trkpt lat="43.22874" lon="3.16702">
        <ele>88.810770798207</ele>
        <time>2017-05-19T09:47:44Z</time>
      </trkpt>
      <trkpt lat="43.22867" lon="3.16697">
        <ele>88.810770798207</ele>
        <time>2017-05-19T09:47:44Z</time>
      </trkpt>
      <trkpt lat="43.2286" lon="3.16693">
        <ele>89.382990931298</ele>
        <time>2017-05-19T09:47:52Z</time>
      </trkpt>
      <trkpt lat="43.22851" lon="3.16687">
        <ele>89.941045856772</ele>
        <time>2017-05-19T09:48:02Z</time>
      </trkpt>
      <trkpt lat="43.22846" lon="3.16679">
        <ele>89.941045856772</ele>
        <time>2017-05-19T09:48:17Z</time>
      </trkpt>
      <trkpt lat="43.2284" lon="3.16673">
        <ele>90.561423029436</ele>
        <time>2017-05-19T09:48:17Z</time>
      </trkpt>
      <trkpt lat="43.22835" lon="3.16668">
        <ele>90.561423029436</ele>
        <time>2017-05-19T09:48:34Z</time>
      </trkpt>
      <trkpt lat="43.22828" lon="3.16662">
        <ele>91.180570642975</ele>
        <time>2017-05-19T09:48:34Z</time>
      </trkpt>
      <trkpt lat="43.22807" lon="3.16653">
        <ele>91.79938390184</ele>
        <time>2017-05-19T09:49:06Z</time>
      </trkpt>
      <trkpt lat="43.22777" lon="3.16625">
        <ele>92.462894857215</ele>
        <time>2017-05-19T09:49:57Z</time>
      </trkpt>
      <trkpt lat="43.22762" lon="3.16608">
        <ele>93.065117890357</ele>
        <time>2017-05-19T09:50:22Z</time>
      </trkpt>
      <trkpt lat="43.22729" lon="3.16577">
        <ele>93.743858742773</ele>
        <time>2017-05-19T09:51:05Z</time>
      </trkpt>
      <trkpt lat="43.22725" lon="3.16577">
        <ele>93.743858742773</ele>
        <time>2017-05-19T09:51:05Z</time>
      </trkpt>
      <trkpt lat="43.22704" lon="3.16568">
        <ele>94.493511380152</ele>
        <time>2017-05-19T09:51:31Z</time>
      </trkpt>
      <trkpt lat="43.22685" lon="3.16587">
        <ele>95.221047738835</ele>
        <time>2017-05-19T09:51:58Z</time>
      </trkpt>
      <trkpt lat="43.22679" lon="3.16596">
        <ele>95.221047738835</ele>
        <time>2017-05-19T09:52:12Z</time>
      </trkpt>
      <trkpt lat="43.22663" lon="3.16615">
        <ele>95.928594239773</ele>
        <time>2017-05-19T09:52:41Z</time>
      </trkpt>
      <trkpt lat="43.22648" lon="3.16635">
        <ele>96.545301664811</ele>
        <time>2017-05-19T09:53:02Z</time>
      </trkpt>
      <trkpt lat="43.22643" lon="3.16639">
        <ele>96.545301664811</ele>
        <time>2017-05-19T09:53:09Z</time>
      </trkpt>
      <trkpt lat="43.22606" lon="3.16691">
        <ele>97.137061581056</ele>
        <time>2017-05-19T09:54:00Z</time>
      </trkpt>
      <trkpt lat="43.22603" lon="3.16696">
        <ele>97.137061581056</ele>
        <time>2017-05-19T09:54:03Z</time>
      </trkpt>
      <trkpt lat="43.22582" lon="3.16723">
        <ele>97.7500295276</ele>
        <time>2017-05-19T09:54:36Z</time>
      </trkpt>
      <trkpt lat="43.2256" lon="3.16745">
        <ele>98.31062260983</ele>
        <time>2017-05-19T09:55:00Z</time>
      </trkpt>
      <trkpt lat="43.22543" lon="3.16764">
        <ele>98.895993825872</ele>
        <time>2017-05-19T09:55:25Z</time>
      </trkpt>
      <trkpt lat="43.2253" lon="3.16775">
        <ele>99.432487339526</ele>
        <time>2017-05-19T09:55:37Z</time>
      </trkpt>
      <trkpt lat="43.2251" lon="3.16789">
        <ele>99.83776196496</ele>
        <time>2017-05-19T09:56:10Z</time>
      </trkpt>
      <trkpt lat="43.225" lon="3.16845">
        <ele>100.06496688429</ele>
        <time>2017-05-19T09:57:06Z</time>
      </trkpt>
      <trkpt lat="43.22497" lon="3.16858">
        <ele>100.17230671219</ele>
        <time>2017-05-19T09:57:23Z</time>
      </trkpt>
      <trkpt lat="43.22489" lon="3.16884">
        <ele>100.27158236198</ele>
        <time>2017-05-19T09:57:43Z</time>
      </trkpt>
      <trkpt lat="43.22488" lon="3.16889">
        <ele>100.27158236198</ele>
        <time>2017-05-19T09:57:43Z</time>
      </trkpt>
      <trkpt lat="43.22475" lon="3.16908">
        <ele>100.29301405604</ele>
        <time>2017-05-19T09:58:09Z</time>
      </trkpt>
      <trkpt lat="43.2248" lon="3.16929">
        <ele>100.17222266357</ele>
        <time>2017-05-19T09:58:42Z</time>
      </trkpt>
      <trkpt lat="43.22469" lon="3.16933">
        <ele>99.979765587666</ele>
        <time>2017-05-19T09:59:09Z</time>
      </trkpt>
      <trkpt lat="43.22468" lon="3.16933">
        <ele>99.979765587666</ele>
        <time>2017-05-19T09:59:10Z</time>
      </trkpt>
      <trkpt lat="43.22465" lon="3.1693">
        <ele>99.979765587666</ele>
        <time>2017-05-19T09:59:16Z</time>
      </trkpt>
      <trkpt lat="43.22462" lon="3.16926">
        <ele>99.979765587666</ele>
        <time>2017-05-19T09:59:24Z</time>
      </trkpt>
      <trkpt lat="43.22441" lon="3.1691">
        <ele>99.752267615249</ele>
        <time>2017-05-19T09:59:49Z</time>
      </trkpt>
      <trkpt lat="43.2244" lon="3.16909">
        <ele>99.752267615249</ele>
        <time>2017-05-19T09:59:57Z</time>
      </trkpt>
      <trkpt lat="43.22437" lon="3.16906">
        <ele>99.752267615249</ele>
        <time>2017-05-19T10:00:06Z</time>
      </trkpt>
      <trkpt lat="43.224" lon="3.16878">
        <ele>99.884167685961</ele>
        <time>2017-05-19T10:03:05Z</time>
      </trkpt>
      <trkpt lat="43.22395" lon="3.16874">
        <ele>99.884167685961</ele>
        <time>2017-05-19T10:03:06Z</time>
      </trkpt>
      <trkpt lat="43.22349" lon="3.16843">
        <ele>100.10539410011</ele>
        <time>2017-05-19T10:04:27Z</time>
      </trkpt>
      <trkpt lat="43.22345" lon="3.1684">
        <ele>100.10539410011</ele>
        <time>2017-05-19T10:04:27Z</time>
      </trkpt>
      <trkpt lat="43.22323" lon="3.16819">
        <ele>100.43944359095</ele>
        <time>2017-05-19T10:05:05Z</time>
      </trkpt>
      <trkpt lat="43.2232" lon="3.16817">
        <ele>100.43944359095</ele>
        <time>2017-05-19T10:05:07Z</time>
      </trkpt>
      <trkpt lat="43.22279" lon="3.16759">
        <ele>101.1960849395</ele>
        <time>2017-05-19T10:06:16Z</time>
      </trkpt>
      <trkpt lat="43.22261" lon="3.1671">
        <ele>102.35834447253</ele>
        <time>2017-05-19T10:07:01Z</time>
      </trkpt>
      <trkpt lat="43.22257" lon="3.1669">
        <ele>103.72189060753</ele>
        <time>2017-05-19T10:07:21Z</time>
      </trkpt>
      <trkpt lat="43.22256" lon="3.16689">
        <ele>103.72189060753</ele>
        <time>2017-05-19T10:07:21Z</time>
      </trkpt>
      <trkpt lat="43.22254" lon="3.1667">
        <ele>105.12561862921</ele>
        <time>2017-05-19T10:07:41Z</time>
      </trkpt>
      <trkpt lat="43.22279" lon="3.16574">
        <ele>107.02573910818</ele>
        <time>2017-05-19T10:09:00Z</time>
      </trkpt>
      <trkpt lat="43.22295" lon="3.16542">
        <ele>108.70433145536</ele>
        <time>2017-05-19T10:09:43Z</time>
      </trkpt>
      <trkpt lat="43.22296" lon="3.16536">
        <ele>108.70433145536</ele>
        <time>2017-05-19T10:09:43Z</time>
      </trkpt>
      <trkpt lat="43.22301" lon="3.16501">
        <ele>110.01590620048</ele>
        <time>2017-05-19T10:10:15Z</time>
      </trkpt>
      <trkpt lat="43.223" lon="3.16478">
        <ele>111.20166616635</ele>
        <time>2017-05-19T10:10:41Z</time>
      </trkpt>
      <trkpt lat="43.22294" lon="3.16405">
        <ele>112.41337214745</ele>
        <time>2017-05-19T10:11:32Z</time>
      </trkpt>
      <trkpt lat="43.22293" lon="3.16398">
        <ele>112.41337214745</ele>
        <time>2017-05-19T10:11:37Z</time>
      </trkpt>
      <trkpt lat="43.22287" lon="3.16366">
        <ele>113.73389540035</ele>
        <time>2017-05-19T10:12:01Z</time>
      </trkpt>
      <trkpt lat="43.22287" lon="3.16364">
        <ele>113.73389540035</ele>
        <time>2017-05-19T10:12:01Z</time>
      </trkpt>
      <trkpt lat="43.22289" lon="3.16342">
        <ele>114.95125125324</ele>
        <time>2017-05-19T10:12:19Z</time>
      </trkpt>
      <trkpt lat="43.22289" lon="3.16341">
        <ele>114.95125125324</ele>
        <time>2017-05-19T10:12:28Z</time>
      </trkpt>
      <trkpt lat="43.22291" lon="3.1633">
        <ele>114.95125125324</ele>
        <time>2017-05-19T10:12:36Z</time>
      </trkpt>
      <trkpt lat="43.22292" lon="3.16321">
        <ele>116.14340097933</ele>
        <time>2017-05-19T10:12:36Z</time>
      </trkpt>
      <trkpt lat="43.22307" lon="3.16246">
        <ele>117.87310786136</ele>
        <time>2017-05-19T10:13:40Z</time>
      </trkpt>
      <trkpt lat="43.22315" lon="3.16241">
        <ele>117.87310786136</ele>
        <time>2017-05-19T10:14:00Z</time>
      </trkpt>
      <trkpt lat="43.22317" lon="3.16239">
        <ele>119.49190101296</ele>
        <time>2017-05-19T10:14:00Z</time>
      </trkpt>
      <trkpt lat="43.22327" lon="3.16233">
        <ele>121.01958632162</ele>
        <time>2017-05-19T10:14:16Z</time>
      </trkpt>
      <trkpt lat="43.22338" lon="3.16226">
        <ele>122.35942481254</ele>
        <time>2017-05-19T10:14:31Z</time>
      </trkpt>
      <trkpt lat="43.22354" lon="3.16186">
        <ele>123.22044860386</ele>
        <time>2017-05-19T10:15:39Z</time>
      </trkpt>
      <trkpt lat="43.22355" lon="3.16183">
        <ele>123.22044860386</ele>
        <time>2017-05-19T10:15:46Z</time>
      </trkpt>
      <trkpt lat="43.22355" lon="3.16177">
        <ele>123.22044860386</ele>
        <time>2017-05-19T10:15:46Z</time>
      </trkpt>
      <trkpt lat="43.22359" lon="3.16155">
        <ele>124.1421985126</ele>
        <time>2017-05-19T10:16:03Z</time>
      </trkpt>
      <trkpt lat="43.2236" lon="3.16111">
        <ele>125.11957856515</ele>
        <time>2017-05-19T10:16:47Z</time>
      </trkpt>
      <trkpt lat="43.22362" lon="3.16099">
        <ele>125.11957856515</ele>
        <time>2017-05-19T10:17:26Z</time>
      </trkpt>
      <trkpt lat="43.22362" lon="3.16094">
        <ele>126.04680359285</ele>
        <time>2017-05-19T10:17:29Z</time>
      </trkpt>
      <trkpt lat="43.22363" lon="3.1609">
        <ele>126.04680359285</ele>
        <time>2017-05-19T10:17:29Z</time>
      </trkpt>
      <trkpt lat="43.22367" lon="3.16067">
        <ele>126.89817041275</ele>
        <time>2017-05-19T10:17:46Z</time>
      </trkpt>
      <trkpt lat="43.22373" lon="3.16032">
        <ele>127.80874747543</ele>
        <time>2017-05-19T10:18:16Z</time>
      </trkpt>
      <trkpt lat="43.22374" lon="3.16032">
        <ele>127.80874747543</ele>
        <time>2017-05-19T10:18:21Z</time>
      </trkpt>
      <trkpt lat="43.22375" lon="3.16024">
        <ele>127.80874747543</ele>
        <time>2017-05-19T10:18:46Z</time>
      </trkpt>
      <trkpt lat="43.22375" lon="3.16018">
        <ele>128.58629433156</ele>
        <time>2017-05-19T10:18:51Z</time>
      </trkpt>
      <trkpt lat="43.22374" lon="3.16011">
        <ele>128.58629433156</ele>
        <time>2017-05-19T10:18:56Z</time>
      </trkpt>
      <trkpt lat="43.22374" lon="3.16003">
        <ele>129.25500780786</ele>
        <time>2017-05-19T10:19:01Z</time>
      </trkpt>
      <trkpt lat="43.22374" lon="3.15996">
        <ele>129.25500780786</ele>
        <time>2017-05-19T10:19:06Z</time>
      </trkpt>
      <trkpt lat="43.22374" lon="3.15988">
        <ele>129.77996842002</ele>
        <time>2017-05-19T10:19:11Z</time>
      </trkpt>
      <trkpt lat="43.22375" lon="3.15983">
        <ele>129.77996842002</ele>
        <time>2017-05-19T10:19:20Z</time>
      </trkpt>
      <trkpt lat="43.22381" lon="3.15938">
        <ele>130.21576571871</ele>
        <time>2017-05-19T10:19:50Z</time>
      </trkpt>
      <trkpt lat="43.22381" lon="3.15932">
        <ele>130.21576571871</ele>
        <time>2017-05-19T10:19:50Z</time>
      </trkpt>
      <trkpt lat="43.22352" lon="3.15933">
        <ele>130.59882623244</ele>
        <time>2017-05-19T10:20:31Z</time>
      </trkpt>
      <trkpt lat="43.22302" lon="3.15927">
        <ele>131.23696592712</ele>
        <time>2017-05-19T10:21:52Z</time>
      </trkpt>
      <trkpt lat="43.22297" lon="3.15927">
        <ele>131.23696592712</ele>
        <time>2017-05-19T10:21:57Z</time>
      </trkpt>
      <trkpt lat="43.22293" lon="3.15926">
        <ele>131.23696592712</ele>
        <time>2017-05-19T10:22:01Z</time>
      </trkpt>
      <trkpt lat="43.22285" lon="3.15926">
        <ele>131.89568365282</ele>
        <time>2017-05-19T10:22:16Z</time>
      </trkpt>
      <trkpt lat="43.2228" lon="3.15921">
        <ele>131.89568365282</ele>
        <time>2017-05-19T10:22:29Z</time>
      </trkpt>
      <trkpt lat="43.22274" lon="3.15915">
        <ele>132.7613158458</ele>
        <time>2017-05-19T10:22:49Z</time>
      </trkpt>
      <trkpt lat="43.22245" lon="3.15927">
        <ele>133.80411653751</ele>
        <time>2017-05-19T10:23:49Z</time>
      </trkpt>
      <trkpt lat="43.22241" lon="3.15928">
        <ele>133.80411653751</ele>
        <time>2017-05-19T10:23:49Z</time>
      </trkpt>
      <trkpt lat="43.22214" lon="3.15931">
        <ele>135.29873636734</ele>
        <time>2017-05-19T10:24:58Z</time>
      </trkpt>
      <trkpt lat="43.22173" lon="3.15919">
        <ele>137.09479470943</ele>
        <time>2017-05-19T10:26:39Z</time>
      </trkpt>
      <trkpt lat="43.22169" lon="3.15915">
        <ele>137.09479470943</ele>
        <time>2017-05-19T10:26:39Z</time>
      </trkpt>
      <trkpt lat="43.22168" lon="3.15915">
        <ele>137.09479470943</ele>
        <time>2017-05-19T10:26:41Z</time>
      </trkpt>
      <trkpt lat="43.22161" lon="3.1591">
        <ele>138.7494804969</ele>
        <time>2017-05-19T10:26:51Z</time>
      </trkpt>
      <trkpt lat="43.22158" lon="3.1591">
        <ele>138.7494804969</ele>
        <time>2017-05-19T10:26:56Z</time>
      </trkpt>
      <trkpt lat="43.22153" lon="3.15909">
        <ele>138.7494804969</ele>
        <time>2017-05-19T10:27:09Z</time>
      </trkpt>
      <trkpt lat="43.22151" lon="3.15906">
        <ele>140.27093908677</ele>
        <time>2017-05-19T10:27:12Z</time>
      </trkpt>
      <trkpt lat="43.22151" lon="3.15906">
        <ele>140.27093908677</ele>
        <time>2017-05-19T10:27:28Z</time>
      </trkpt>
      <trkpt lat="43.22149" lon="3.15903">
        <ele>140.27093908677</ele>
        <time>2017-05-19T10:28:31Z</time>
      </trkpt>
      <trkpt lat="43.22151" lon="3.15904">
        <ele>140.27093908677</ele>
        <time>2017-05-19T10:28:36Z</time>
      </trkpt>
      <trkpt lat="43.22151" lon="3.15904">
        <ele>140.27093908677</ele>
        <time>2017-05-19T10:28:41Z</time>
      </trkpt>
      <trkpt lat="43.22153" lon="3.15906">
        <ele>140.27093908677</ele>
        <time>2017-05-19T10:28:46Z</time>
      </trkpt>
      <trkpt lat="43.22158" lon="3.15906">
        <ele>142.22919551756</ele>
        <time>2017-05-19T10:28:51Z</time>
      </trkpt>
      <trkpt lat="43.22164" lon="3.15909">
        <ele>142.22919551756</ele>
        <time>2017-05-19T10:28:56Z</time>
      </trkpt>
      <trkpt lat="43.22168" lon="3.15913">
        <ele>144.02702906574</ele>
        <time>2017-05-19T10:29:01Z</time>
      </trkpt>
      <trkpt lat="43.22171" lon="3.15917">
        <ele>144.02702906574</ele>
        <time>2017-05-19T10:29:06Z</time>
      </trkpt>
      <trkpt lat="43.22175" lon="3.1592">
        <ele>144.02702906574</ele>
        <time>2017-05-19T10:29:11Z</time>
      </trkpt>
      <trkpt lat="43.2218" lon="3.15924">
        <ele>145.58720611293</ele>
        <time>2017-05-19T10:29:16Z</time>
      </trkpt>
      <trkpt lat="43.22184" lon="3.15926">
        <ele>145.58720611293</ele>
        <time>2017-05-19T10:29:21Z</time>
      </trkpt>
      <trkpt lat="43.22187" lon="3.15931">
        <ele>146.92534529995</ele>
        <time>2017-05-19T10:29:26Z</time>
      </trkpt>
      <trkpt lat="43.2219" lon="3.15937">
        <ele>146.92534529995</ele>
        <time>2017-05-19T10:29:31Z</time>
      </trkpt>
      <trkpt lat="43.2219" lon="3.15936">
        <ele>146.92534529995</ele>
        <time>2017-05-19T10:29:36Z</time>
      </trkpt>
      <trkpt lat="43.2219" lon="3.15936">
        <ele>146.92534529995</ele>
        <time>2017-05-19T10:29:41Z</time>
      </trkpt>
      <trkpt lat="43.22196" lon="3.15936">
        <ele>147.86923049011</ele>
        <time>2017-05-19T10:32:51Z</time>
      </trkpt>
      <trkpt lat="43.22199" lon="3.15935">
        <ele>147.86923049011</ele>
        <time>2017-05-19T10:32:56Z</time>
      </trkpt>
      <trkpt lat="43.22203" lon="3.15934">
        <ele>147.86923049011</ele>
        <time>2017-05-19T10:33:01Z</time>
      </trkpt>
      <trkpt lat="43.22207" lon="3.15933">
        <ele>148.67837955635</ele>
        <time>2017-05-19T10:33:06Z</time>
      </trkpt>
      <trkpt lat="43.2221" lon="3.15928">
        <ele>148.67837955635</ele>
        <time>2017-05-19T10:33:11Z</time>
      </trkpt>
      <trkpt lat="43.22212" lon="3.15928">
        <ele>148.67837955635</ele>
        <time>2017-05-19T10:33:16Z</time>
      </trkpt>
      <trkpt lat="43.22213" lon="3.1593">
        <ele>148.67837955635</ele>
        <time>2017-05-19T10:33:21Z</time>
      </trkpt>
      <trkpt lat="43.22215" lon="3.15929">
        <ele>149.40630924236</ele>
        <time>2017-05-19T10:33:26Z</time>
      </trkpt>
      <trkpt lat="43.22218" lon="3.15933">
        <ele>149.40630924236</ele>
        <time>2017-05-19T10:35:21Z</time>
      </trkpt>
      <trkpt lat="43.2222" lon="3.15929">
        <ele>149.40630924236</ele>
        <time>2017-05-19T10:35:51Z</time>
      </trkpt>
      <trkpt lat="43.22223" lon="3.15932">
        <ele>149.80023084468</ele>
        <time>2017-05-19T10:35:56Z</time>
      </trkpt>
      <trkpt lat="43.22232" lon="3.15932">
        <ele>149.80023084468</ele>
        <time>2017-05-19T10:36:15Z</time>
      </trkpt>
      <trkpt lat="43.22233" lon="3.15931">
        <ele>150.04482262596</ele>
        <time>2017-05-19T10:36:15Z</time>
      </trkpt>
      <trkpt lat="43.22246" lon="3.15927">
        <ele>149.850477096</ele>
        <time>2017-05-19T10:36:31Z</time>
      </trkpt>
      <trkpt lat="43.2225" lon="3.15927">
        <ele>149.850477096</ele>
        <time>2017-05-19T10:36:36Z</time>
      </trkpt>
      <trkpt lat="43.22255" lon="3.15928">
        <ele>149.36803422558</ele>
        <time>2017-05-19T10:36:41Z</time>
      </trkpt>
      <trkpt lat="43.22261" lon="3.15927">
        <ele>149.36803422558</ele>
        <time>2017-05-19T10:36:46Z</time>
      </trkpt>
      <trkpt lat="43.22265" lon="3.15926">
        <ele>148.56512991837</ele>
        <time>2017-05-19T10:36:51Z</time>
      </trkpt>
      <trkpt lat="43.22268" lon="3.1592">
        <ele>148.56512991837</ele>
        <time>2017-05-19T10:36:56Z</time>
      </trkpt>
      <trkpt lat="43.22269" lon="3.15914">
        <ele>147.45590159474</ele>
        <time>2017-05-19T10:37:01Z</time>
      </trkpt>
      <trkpt lat="43.22271" lon="3.15912">
        <ele>147.45590159474</ele>
        <time>2017-05-19T10:37:06Z</time>
      </trkpt>
      <trkpt lat="43.22271" lon="3.15912">
        <ele>147.45590159474</ele>
        <time>2017-05-19T10:37:11Z</time>
      </trkpt>
      <trkpt lat="43.22274" lon="3.15913">
        <ele>147.45590159474</ele>
        <time>2017-05-19T10:37:16Z</time>
      </trkpt>
      <trkpt lat="43.22276" lon="3.15917">
        <ele>146.08310717647</ele>
        <time>2017-05-19T10:37:21Z</time>
      </trkpt>
      <trkpt lat="43.22278" lon="3.1592">
        <ele>146.08310717647</ele>
        <time>2017-05-19T10:37:26Z</time>
      </trkpt>
      <trkpt lat="43.22281" lon="3.15923">
        <ele>146.08310717647</ele>
        <time>2017-05-19T10:37:31Z</time>
      </trkpt>
      <trkpt lat="43.22285" lon="3.15927">
        <ele>144.68882357485</ele>
        <time>2017-05-19T10:37:36Z</time>
      </trkpt>
      <trkpt lat="43.22289" lon="3.15926">
        <ele>144.68882357485</ele>
        <time>2017-05-19T10:37:41Z</time>
      </trkpt>
      <trkpt lat="43.22294" lon="3.15926">
        <ele>144.68882357485</ele>
        <time>2017-05-19T10:37:46Z</time>
      </trkpt>
      <trkpt lat="43.22298" lon="3.15925">
        <ele>143.25235973733</ele>
        <time>2017-05-19T10:37:51Z</time>
      </trkpt>
      <trkpt lat="43.22303" lon="3.15925">
        <ele>143.25235973733</ele>
        <time>2017-05-19T10:37:56Z</time>
      </trkpt>
      <trkpt lat="43.22307" lon="3.15925">
        <ele>141.74018212258</ele>
        <time>2017-05-19T10:38:01Z</time>
      </trkpt>
      <trkpt lat="43.22311" lon="3.15925">
        <ele>141.74018212258</ele>
        <time>2017-05-19T10:38:06Z</time>
      </trkpt>
      <trkpt lat="43.22315" lon="3.15926">
        <ele>141.74018212258</ele>
        <time>2017-05-19T10:38:11Z</time>
      </trkpt>
      <trkpt lat="43.2232" lon="3.15926">
        <ele>140.02046852103</ele>
        <time>2017-05-19T10:38:16Z</time>
      </trkpt>
      <trkpt lat="43.22327" lon="3.15926">
        <ele>140.02046852103</ele>
        <time>2017-05-19T10:38:21Z</time>
      </trkpt>
      <trkpt lat="43.2233" lon="3.15927">
        <ele>138.23096867918</ele>
        <time>2017-05-19T10:38:26Z</time>
      </trkpt>
      <trkpt lat="43.22338" lon="3.15928">
        <ele>138.23096867918</ele>
        <time>2017-05-19T10:38:32Z</time>
      </trkpt>
      <trkpt lat="43.2236" lon="3.1593">
        <ele>135.89411553642</ele>
        <time>2017-05-19T10:38:56Z</time>
      </trkpt>
      <trkpt lat="43.22363" lon="3.15931">
        <ele>135.89411553642</ele>
        <time>2017-05-19T10:39:01Z</time>
      </trkpt>
      <trkpt lat="43.22363" lon="3.15931">
        <ele>135.89411553642</ele>
        <time>2017-05-19T10:39:06Z</time>
      </trkpt>
      <trkpt lat="43.22367" lon="3.15931">
        <ele>135.89411553642</ele>
        <time>2017-05-19T10:39:21Z</time>
      </trkpt>
      <trkpt lat="43.22372" lon="3.1593">
        <ele>133.89468475714</ele>
        <time>2017-05-19T10:39:26Z</time>
      </trkpt>
      <trkpt lat="43.22377" lon="3.1593">
        <ele>133.89468475714</ele>
        <time>2017-05-19T10:39:31Z</time>
      </trkpt>
      <trkpt lat="43.22382" lon="3.15935">
        <ele>132.01374494029</ele>
        <time>2017-05-19T10:39:36Z</time>
      </trkpt>
      <trkpt lat="43.22383" lon="3.1594">
        <ele>132.01374494029</ele>
        <time>2017-05-19T10:39:41Z</time>
      </trkpt>
      <trkpt lat="43.22381" lon="3.1595">
        <ele>130.12001817237</ele>
        <time>2017-05-19T10:39:46Z</time>
      </trkpt>
      <trkpt lat="43.22381" lon="3.15958">
        <ele>130.12001817237</ele>
        <time>2017-05-19T10:39:51Z</time>
      </trkpt>
      <trkpt lat="43.2238" lon="3.15961">
        <ele>130.12001817237</ele>
        <time>2017-05-19T10:39:56Z</time>
      </trkpt>
      <trkpt lat="43.2238" lon="3.15961">
        <ele>130.12001817237</ele>
        <time>2017-05-19T10:40:01Z</time>
      </trkpt>
      <trkpt lat="43.22378" lon="3.15964">
        <ele>128.2214449355</ele>
        <time>2017-05-19T10:40:11Z</time>
      </trkpt>
      <trkpt lat="43.22377" lon="3.15969">
        <ele>128.2214449355</ele>
        <time>2017-05-19T10:40:16Z</time>
      </trkpt>
      <trkpt lat="43.22377" lon="3.15981">
        <ele>126.44051489992</ele>
        <time>2017-05-19T10:40:43Z</time>
      </trkpt>
      <trkpt lat="43.22375" lon="3.15991">
        <ele>126.44051489992</ele>
        <time>2017-05-19T10:40:43Z</time>
      </trkpt>
      <trkpt lat="43.22375" lon="3.16004">
        <ele>124.83256363411</ele>
        <time>2017-05-19T10:40:59Z</time>
      </trkpt>
      <trkpt lat="43.22374" lon="3.16015">
        <ele>124.83256363411</ele>
        <time>2017-05-19T10:40:59Z</time>
      </trkpt>
      <trkpt lat="43.22364" lon="3.16105">
        <ele>122.2376255629</ele>
        <time>2017-05-19T10:42:04Z</time>
      </trkpt>
      <trkpt lat="43.22363" lon="3.16134">
        <ele>119.77406837397</ele>
        <time>2017-05-19T10:42:21Z</time>
      </trkpt>
      <trkpt lat="43.22355" lon="3.16168">
        <ele>117.74254876435</ele>
        <time>2017-05-19T10:42:50Z</time>
      </trkpt>
      <trkpt lat="43.22355" lon="3.16179">
        <ele>117.74254876435</ele>
        <time>2017-05-19T10:42:50Z</time>
      </trkpt>
      <trkpt lat="43.22354" lon="3.16189">
        <ele>116.01669894854</ele>
        <time>2017-05-19T10:42:56Z</time>
      </trkpt>
      <trkpt lat="43.22353" lon="3.16197">
        <ele>116.01669894854</ele>
        <time>2017-05-19T10:43:01Z</time>
      </trkpt>
      <trkpt lat="43.22351" lon="3.16206">
        <ele>114.50719175505</ele>
        <time>2017-05-19T10:43:06Z</time>
      </trkpt>
      <trkpt lat="43.22349" lon="3.16215">
        <ele>114.50719175505</ele>
        <time>2017-05-19T10:43:11Z</time>
      </trkpt>
      <trkpt lat="43.22347" lon="3.16219">
        <ele>113.23132681876</ele>
        <time>2017-05-19T10:43:16Z</time>
      </trkpt>
      <trkpt lat="43.22345" lon="3.16224">
        <ele>113.23132681876</ele>
        <time>2017-05-19T10:43:21Z</time>
      </trkpt>
      <trkpt lat="43.2234" lon="3.16228">
        <ele>112.1610374249</ele>
        <time>2017-05-19T10:43:26Z</time>
      </trkpt>
      <trkpt lat="43.22335" lon="3.16231">
        <ele>112.1610374249</ele>
        <time>2017-05-19T10:43:31Z</time>
      </trkpt>
      <trkpt lat="43.22331" lon="3.16233">
        <ele>111.24071846986</ele>
        <time>2017-05-19T10:43:36Z</time>
      </trkpt>
      <trkpt lat="43.22329" lon="3.16233">
        <ele>111.24071846986</ele>
        <time>2017-05-19T10:43:41Z</time>
      </trkpt>
      <trkpt lat="43.22323" lon="3.16236">
        <ele>111.24071846986</ele>
        <time>2017-05-19T10:43:46Z</time>
      </trkpt>
      <trkpt lat="43.22318" lon="3.16239">
        <ele>110.57676004828</ele>
        <time>2017-05-19T10:43:51Z</time>
      </trkpt>
      <trkpt lat="43.22313" lon="3.16242">
        <ele>110.57676004828</ele>
        <time>2017-05-19T10:43:56Z</time>
      </trkpt>
      <trkpt lat="43.22307" lon="3.16245">
        <ele>110.07948473654</ele>
        <time>2017-05-19T10:44:01Z</time>
      </trkpt>
      <trkpt lat="43.22303" lon="3.16248">
        <ele>110.07948473654</ele>
        <time>2017-05-19T10:44:06Z</time>
      </trkpt>
      <trkpt lat="43.22299" lon="3.16254">
        <ele>109.83809648626</ele>
        <time>2017-05-19T10:44:11Z</time>
      </trkpt>
      <trkpt lat="43.22299" lon="3.1626">
        <ele>109.83809648626</ele>
        <time>2017-05-19T10:44:16Z</time>
      </trkpt>
      <trkpt lat="43.22299" lon="3.1627">
        <ele>109.73260703753</ele>
        <time>2017-05-19T10:44:21Z</time>
      </trkpt>
      <trkpt lat="43.223" lon="3.16276">
        <ele>109.73260703753</ele>
        <time>2017-05-19T10:44:26Z</time>
      </trkpt>
      <trkpt lat="43.22299" lon="3.16283">
        <ele>109.65131151179</ele>
        <time>2017-05-19T10:44:31Z</time>
      </trkpt>
      <trkpt lat="43.22298" lon="3.16289">
        <ele>109.65131151179</ele>
        <time>2017-05-19T10:44:36Z</time>
      </trkpt>
      <trkpt lat="43.22289" lon="3.16353">
        <ele>109.25992601624</ele>
        <time>2017-05-19T10:45:28Z</time>
      </trkpt>
      <trkpt lat="43.22288" lon="3.16357">
        <ele>109.25992601624</ele>
        <time>2017-05-19T10:45:31Z</time>
      </trkpt>
      <trkpt lat="43.22289" lon="3.16361">
        <ele>109.25992601624</ele>
        <time>2017-05-19T10:45:36Z</time>
      </trkpt>
      <trkpt lat="43.22294" lon="3.16389">
        <ele>108.5665157015</ele>
        <time>2017-05-19T10:46:00Z</time>
      </trkpt>
      <trkpt lat="43.22294" lon="3.16394">
        <ele>108.5665157015</ele>
        <time>2017-05-19T10:46:04Z</time>
      </trkpt>
      <trkpt lat="43.22297" lon="3.1642">
        <ele>107.7810420495</ele>
        <time>2017-05-19T10:46:20Z</time>
      </trkpt>
      <trkpt lat="43.22297" lon="3.16428">
        <ele>107.7810420495</ele>
        <time>2017-05-19T10:46:36Z</time>
      </trkpt>
      <trkpt lat="43.22302" lon="3.16474">
        <ele>106.82438052583</ele>
        <time>2017-05-19T10:47:24Z</time>
      </trkpt>
      <trkpt lat="43.223" lon="3.1653">
        <ele>105.50830904393</ele>
        <time>2017-05-19T10:48:06Z</time>
      </trkpt>
      <trkpt lat="43.22282" lon="3.1657">
        <ele>104.22138018221</ele>
        <time>2017-05-19T10:48:28Z</time>
      </trkpt>
      <trkpt lat="43.22264" lon="3.16607">
        <ele>103.36666165923</ele>
        <time>2017-05-19T10:49:00Z</time>
      </trkpt>
      <trkpt lat="43.22256" lon="3.16673">
        <ele>103.01367639048</ele>
        <time>2017-05-19T10:49:46Z</time>
      </trkpt>
      <trkpt lat="43.22255" lon="3.1668">
        <ele>103.01367639048</ele>
        <time>2017-05-19T10:49:51Z</time>
      </trkpt>
      <trkpt lat="43.22256" lon="3.16687">
        <ele>102.8074272234</ele>
        <time>2017-05-19T10:49:56Z</time>
      </trkpt>
      <trkpt lat="43.22257" lon="3.16694">
        <ele>102.8074272234</ele>
        <time>2017-05-19T10:50:01Z</time>
      </trkpt>
      <trkpt lat="43.22259" lon="3.16701">
        <ele>102.63467673125</ele>
        <time>2017-05-19T10:50:06Z</time>
      </trkpt>
      <trkpt lat="43.2226" lon="3.16708">
        <ele>102.63467673125</ele>
        <time>2017-05-19T10:50:11Z</time>
      </trkpt>
      <trkpt lat="43.22262" lon="3.16716">
        <ele>102.53445852543</ele>
        <time>2017-05-19T10:50:16Z</time>
      </trkpt>
      <trkpt lat="43.22263" lon="3.16723">
        <ele>102.53445852543</ele>
        <time>2017-05-19T10:50:21Z</time>
      </trkpt>
      <trkpt lat="43.22265" lon="3.1673">
        <ele>102.34092454717</ele>
        <time>2017-05-19T10:50:26Z</time>
      </trkpt>
      <trkpt lat="43.22266" lon="3.16737">
        <ele>102.34092454717</ele>
        <time>2017-05-19T10:50:31Z</time>
      </trkpt>
      <trkpt lat="43.2227" lon="3.16743">
        <ele>101.97268182962</ele>
        <time>2017-05-19T10:50:36Z</time>
      </trkpt>
      <trkpt lat="43.2229" lon="3.16774">
        <ele>101.03772384684</ele>
        <time>2017-05-19T10:51:03Z</time>
      </trkpt>
      <trkpt lat="43.22333" lon="3.16829">
        <ele>99.995832282099</ele>
        <time>2017-05-19T10:51:59Z</time>
      </trkpt>
      <trkpt lat="43.22333" lon="3.1683">
        <ele>99.995832282099</ele>
        <time>2017-05-19T10:52:01Z</time>
      </trkpt>
      <trkpt lat="43.22436" lon="3.16906">
        <ele>98.711250339986</ele>
        <time>2017-05-19T10:53:53Z</time>
      </trkpt>
      <trkpt lat="43.22448" lon="3.16916">
        <ele>97.534413784376</ele>
        <time>2017-05-19T10:54:13Z</time>
      </trkpt>
      <trkpt lat="43.22458" lon="3.16924">
        <ele>96.400585126914</ele>
        <time>2017-05-19T10:54:16Z</time>
      </trkpt>
      <trkpt lat="43.22461" lon="3.16927">
        <ele>96.400585126914</ele>
        <time>2017-05-19T10:54:21Z</time>
      </trkpt>
      <trkpt lat="43.22461" lon="3.16927">
        <ele>96.400585126914</ele>
        <time>2017-05-19T10:54:26Z</time>
      </trkpt>
      <trkpt lat="43.22466" lon="3.16933">
        <ele>95.163166789769</ele>
        <time>2017-05-19T10:54:36Z</time>
      </trkpt>
      <trkpt lat="43.22469" lon="3.16936">
        <ele>95.163166789769</ele>
        <time>2017-05-19T10:54:41Z</time>
      </trkpt>
      <trkpt lat="43.22472" lon="3.16939">
        <ele>95.163166789769</ele>
        <time>2017-05-19T10:54:46Z</time>
      </trkpt>
      <trkpt lat="43.22473" lon="3.16938">
        <ele>95.163166789769</ele>
        <time>2017-05-19T10:54:51Z</time>
      </trkpt>
      <trkpt lat="43.22477" lon="3.16939">
        <ele>93.917169884949</ele>
        <time>2017-05-19T10:55:01Z</time>
      </trkpt>
      <trkpt lat="43.22479" lon="3.16935">
        <ele>93.917169884949</ele>
        <time>2017-05-19T10:55:06Z</time>
      </trkpt>
      <trkpt lat="43.22479" lon="3.16935">
        <ele>93.917169884949</ele>
        <time>2017-05-19T10:55:11Z</time>
      </trkpt>
      <trkpt lat="43.22481" lon="3.16935">
        <ele>93.917169884949</ele>
        <time>2017-05-19T10:55:21Z</time>
      </trkpt>
      <trkpt lat="43.22483" lon="3.16939">
        <ele>92.678565357627</ele>
        <time>2017-05-19T10:55:26Z</time>
      </trkpt>
      <trkpt lat="43.22486" lon="3.1694">
        <ele>92.678565357627</ele>
        <time>2017-05-19T10:55:31Z</time>
      </trkpt>
      <trkpt lat="43.22489" lon="3.16934">
        <ele>91.562978701561</ele>
        <time>2017-05-19T10:55:38Z</time>
      </trkpt>
      <trkpt lat="43.22491" lon="3.16932">
        <ele>91.562978701561</ele>
        <time>2017-05-19T10:55:41Z</time>
      </trkpt>
      <trkpt lat="43.22501" lon="3.16921">
        <ele>90.561878353841</ele>
        <time>2017-05-19T10:55:51Z</time>
      </trkpt>
      <trkpt lat="43.22499" lon="3.16918">
        <ele>90.561878353841</ele>
        <time>2017-05-19T10:55:56Z</time>
      </trkpt>
      <trkpt lat="43.22499" lon="3.16919">
        <ele>90.561878353841</ele>
        <time>2017-05-19T10:56:06Z</time>
      </trkpt>
      <trkpt lat="43.2252" lon="3.16891">
        <ele>89.479664984433</ele>
        <time>2017-05-19T10:58:00Z</time>
      </trkpt>
      <trkpt lat="43.22523" lon="3.16887">
        <ele>89.479664984433</ele>
        <time>2017-05-19T10:58:02Z</time>
      </trkpt>
      <trkpt lat="43.22542" lon="3.16854">
        <ele>88.250596326972</ele>
        <time>2017-05-19T10:58:37Z</time>
      </trkpt>
      <trkpt lat="43.22542" lon="3.16853">
        <ele>88.250596326972</ele>
        <time>2017-05-19T10:58:41Z</time>
      </trkpt>
      <trkpt lat="43.22551" lon="3.16839">
        <ele>87.217655963513</ele>
        <time>2017-05-19T10:58:56Z</time>
      </trkpt>
      <trkpt lat="43.22598" lon="3.16765">
        <ele>86.381011570934</ele>
        <time>2017-05-19T11:00:05Z</time>
      </trkpt>
      <trkpt lat="43.2261" lon="3.16745">
        <ele>85.697010706619</ele>
        <time>2017-05-19T11:00:17Z</time>
      </trkpt>
      <trkpt lat="43.22613" lon="3.16741">
        <ele>85.697010706619</ele>
        <time>2017-05-19T11:00:21Z</time>
      </trkpt>
      <trkpt lat="43.22617" lon="3.16736">
        <ele>85.182403037157</ele>
        <time>2017-05-19T11:00:26Z</time>
      </trkpt>
      <trkpt lat="43.2262" lon="3.16729">
        <ele>85.182403037157</ele>
        <time>2017-05-19T11:00:31Z</time>
      </trkpt>
      <trkpt lat="43.22624" lon="3.16723">
        <ele>84.808982549643</ele>
        <time>2017-05-19T11:00:36Z</time>
      </trkpt>
      <trkpt lat="43.22628" lon="3.16717">
        <ele>84.808982549643</ele>
        <time>2017-05-19T11:00:41Z</time>
      </trkpt>
      <trkpt lat="43.22631" lon="3.16712">
        <ele>84.579029996784</ele>
        <time>2017-05-19T11:00:46Z</time>
      </trkpt>
      <trkpt lat="43.22662" lon="3.16668">
        <ele>84.465428588042</ele>
        <time>2017-05-19T11:01:30Z</time>
      </trkpt>
      <trkpt lat="43.2268" lon="3.16634">
        <ele>84.183327918385</ele>
        <time>2017-05-19T11:02:01Z</time>
      </trkpt>
      <trkpt lat="43.22686" lon="3.16625">
        <ele>83.988083366114</ele>
        <time>2017-05-19T11:02:01Z</time>
      </trkpt>
      <trkpt lat="43.22717" lon="3.16581">
        <ele>83.712550475883</ele>
        <time>2017-05-19T11:02:50Z</time>
      </trkpt>
      <trkpt lat="43.22726" lon="3.1658">
        <ele>83.475918896955</ele>
        <time>2017-05-19T11:02:56Z</time>
      </trkpt>
      <trkpt lat="43.22738" lon="3.16578">
        <ele>83.230015125961</ele>
        <time>2017-05-19T11:03:08Z</time>
      </trkpt>
      <trkpt lat="43.2278" lon="3.16628">
        <ele>82.814969576381</ele>
        <time>2017-05-19T11:03:58Z</time>
      </trkpt>
      <trkpt lat="43.22785" lon="3.16632">
        <ele>82.814969576381</ele>
        <time>2017-05-19T11:04:03Z</time>
      </trkpt>
      <trkpt lat="43.22794" lon="3.16644">
        <ele>82.385796249187</ele>
        <time>2017-05-19T11:04:24Z</time>
      </trkpt>
      <trkpt lat="43.22796" lon="3.16649">
        <ele>82.385796249187</ele>
        <time>2017-05-19T11:04:24Z</time>
      </trkpt>
      <trkpt lat="43.22799" lon="3.1665">
        <ele>82.385796249187</ele>
        <time>2017-05-19T11:04:48Z</time>
      </trkpt>
      <trkpt lat="43.22816" lon="3.16657">
        <ele>82.086196010929</ele>
        <time>2017-05-19T11:05:17Z</time>
      </trkpt>
      <trkpt lat="43.22832" lon="3.16667">
        <ele>81.847231331136</ele>
        <time>2017-05-19T11:05:39Z</time>
      </trkpt>
      <trkpt lat="43.22837" lon="3.16671">
        <ele>81.847231331136</ele>
        <time>2017-05-19T11:05:39Z</time>
      </trkpt>
      <trkpt lat="43.22854" lon="3.16689">
        <ele>81.777831815531</ele>
        <time>2017-05-19T11:06:06Z</time>
      </trkpt>
      <trkpt lat="43.22861" lon="3.16694">
        <ele>81.777831815531</ele>
        <time>2017-05-19T11:06:08Z</time>
      </trkpt>
      <trkpt lat="43.2287" lon="3.16699">
        <ele>81.762325250839</ele>
        <time>2017-05-19T11:06:18Z</time>
      </trkpt>
      <trkpt lat="43.22888" lon="3.16716">
        <ele>81.765487072041</ele>
        <time>2017-05-19T11:06:39Z</time>
      </trkpt>
      <trkpt lat="43.22906" lon="3.16732">
        <ele>81.740266281279</ele>
        <time>2017-05-19T11:07:01Z</time>
      </trkpt>
      <trkpt lat="43.22929" lon="3.1676">
        <ele>81.67202289878</ele>
        <time>2017-05-19T11:07:29Z</time>
      </trkpt>
      <trkpt lat="43.22934" lon="3.16766">
        <ele>81.67202289878</ele>
        <time>2017-05-19T11:07:34Z</time>
      </trkpt>
      <trkpt lat="43.22938" lon="3.16776">
        <ele>81.518546414662</ele>
        <time>2017-05-19T11:07:42Z</time>
      </trkpt>
      <trkpt lat="43.22946" lon="3.16797">
        <ele>81.428368579958</ele>
        <time>2017-05-19T11:08:07Z</time>
      </trkpt>
      <trkpt lat="43.22948" lon="3.16805">
        <ele>81.428368579958</ele>
        <time>2017-05-19T11:08:07Z</time>
      </trkpt>
      <trkpt lat="43.22959" lon="3.16871">
        <ele>80.645501425441</ele>
        <time>2017-05-19T11:09:00Z</time>
      </trkpt>
      <trkpt lat="43.22984" lon="3.16951">
        <ele>79.148813629349</ele>
        <time>2017-05-19T11:10:00Z</time>
      </trkpt>
      <trkpt lat="43.22984" lon="3.16955">
        <ele>79.148813629349</ele>
        <time>2017-05-19T11:10:05Z</time>
      </trkpt>
      <trkpt lat="43.22997" lon="3.16985">
        <ele>77.684569943691</ele>
        <time>2017-05-19T11:10:30Z</time>
      </trkpt>
      <trkpt lat="43.23001" lon="3.16995">
        <ele>77.684569943691</ele>
        <time>2017-05-19T11:10:30Z</time>
      </trkpt>
      <trkpt lat="43.23002" lon="3.16996">
        <ele>76.468602536184</ele>
        <time>2017-05-19T11:10:31Z</time>
      </trkpt>
      <trkpt lat="43.23017" lon="3.17025">
        <ele>75.311129610285</ele>
        <time>2017-05-19T11:11:01Z</time>
      </trkpt>
      <trkpt lat="43.23026" lon="3.17045">
        <ele>74.237932205814</ele>
        <time>2017-05-19T11:11:19Z</time>
      </trkpt>
      <trkpt lat="43.23027" lon="3.17046">
        <ele>74.237932205814</ele>
        <time>2017-05-19T11:11:19Z</time>
      </trkpt>
      <trkpt lat="43.23031" lon="3.17052">
        <ele>74.237932205814</ele>
        <time>2017-05-19T11:11:26Z</time>
      </trkpt>
      <trkpt lat="43.23038" lon="3.17069">
        <ele>73.186218060582</ele>
        <time>2017-05-19T11:11:43Z</time>
      </trkpt>
      <trkpt lat="43.23046" lon="3.17086">
        <ele>72.140999119587</ele>
        <time>2017-05-19T11:12:08Z</time>
      </trkpt>
      <trkpt lat="43.23057" lon="3.17104">
        <ele>71.059561657178</ele>
        <time>2017-05-19T11:12:17Z</time>
      </trkpt>
      <trkpt lat="43.23058" lon="3.17106">
        <ele>71.059561657178</ele>
        <time>2017-05-19T11:12:25Z</time>
      </trkpt>
      <trkpt lat="43.23073" lon="3.1714">
        <ele>69.988907540656</ele>
        <time>2017-05-19T11:12:49Z</time>
      </trkpt>
      <trkpt lat="43.23106" lon="3.17179">
        <ele>68.84286109586</ele>
        <time>2017-05-19T11:13:41Z</time>
      </trkpt>
      <trkpt lat="43.23109" lon="3.17185">
        <ele>68.84286109586</ele>
        <time>2017-05-19T11:13:43Z</time>
      </trkpt>
      <trkpt lat="43.23117" lon="3.17212">
        <ele>67.786779283589</ele>
        <time>2017-05-19T11:14:06Z</time>
      </trkpt>
      <trkpt lat="43.23117" lon="3.17215">
        <ele>67.786779283589</ele>
        <time>2017-05-19T11:14:06Z</time>
      </trkpt>
      <trkpt lat="43.23128" lon="3.1723">
        <ele>66.901562565316</ele>
        <time>2017-05-19T11:14:33Z</time>
      </trkpt>
      <trkpt lat="43.23158" lon="3.17258">
        <ele>66.204040811799</ele>
        <time>2017-05-19T11:14:57Z</time>
      </trkpt>
      <trkpt lat="43.23189" lon="3.1733">
        <ele>65.521931143045</ele>
        <time>2017-05-19T11:15:51Z</time>
      </trkpt>
      <trkpt lat="43.2324" lon="3.17382">
        <ele>65.358469649254</ele>
        <time>2017-05-19T11:16:48Z</time>
      </trkpt>
      <trkpt lat="43.23242" lon="3.17382">
        <ele>65.358469649254</ele>
        <time>2017-05-19T11:16:55Z</time>
      </trkpt>
      <trkpt lat="43.23245" lon="3.17385">
        <ele>65.358469649254</ele>
        <time>2017-05-19T11:16:55Z</time>
      </trkpt>
      <trkpt lat="43.23256" lon="3.17414">
        <ele>64.910288028926</ele>
        <time>2017-05-19T11:17:38Z</time>
      </trkpt>
      <trkpt lat="43.23251" lon="3.17427">
        <ele>64.428197062983</ele>
        <time>2017-05-19T11:17:38Z</time>
      </trkpt>
      <trkpt lat="43.23249" lon="3.17469">
        <ele>64.014978989613</ele>
        <time>2017-05-19T11:18:06Z</time>
      </trkpt>
      <trkpt lat="43.23238" lon="3.17527">
        <ele>63.520686611536</ele>
        <time>2017-05-19T11:18:55Z</time>
      </trkpt>
      <trkpt lat="43.23237" lon="3.17528">
        <ele>63.520686611536</ele>
        <time>2017-05-19T11:19:03Z</time>
      </trkpt>
      <trkpt lat="43.23244" lon="3.17549">
        <ele>62.979553283413</ele>
        <time>2017-05-19T11:19:36Z</time>
      </trkpt>
      <trkpt lat="43.23244" lon="3.17558">
        <ele>62.979553283413</ele>
        <time>2017-05-19T11:19:36Z</time>
      </trkpt>
      <trkpt lat="43.23244" lon="3.17559">
        <ele>62.979553283413</ele>
        <time>2017-05-19T11:19:37Z</time>
      </trkpt>
      <trkpt lat="43.23246" lon="3.17574">
        <ele>62.380201554363</ele>
        <time>2017-05-19T11:19:49Z</time>
      </trkpt>
      <trkpt lat="43.23246" lon="3.17595">
        <ele>61.741082012836</ele>
        <time>2017-05-19T11:20:12Z</time>
      </trkpt>
      <trkpt lat="43.23243" lon="3.17602">
        <ele>61.741082012836</ele>
        <time>2017-05-19T11:20:12Z</time>
      </trkpt>
      <trkpt lat="43.23242" lon="3.17638">
        <ele>60.79118560907</ele>
        <time>2017-05-19T11:20:46Z</time>
      </trkpt>
      <trkpt lat="43.23244" lon="3.17645">
        <ele>60.79118560907</ele>
        <time>2017-05-19T11:20:51Z</time>
      </trkpt>
      <trkpt lat="43.23246" lon="3.17651">
        <ele>59.885555891077</ele>
        <time>2017-05-19T11:20:56Z</time>
      </trkpt>
      <trkpt lat="43.23252" lon="3.17685">
        <ele>58.963934959029</ele>
        <time>2017-05-19T11:21:32Z</time>
      </trkpt>
      <trkpt lat="43.23254" lon="3.17696">
        <ele>58.963934959029</ele>
        <time>2017-05-19T11:21:32Z</time>
      </trkpt>
      <trkpt lat="43.2326" lon="3.17732">
        <ele>57.884071458828</ele>
        <time>2017-05-19T11:22:00Z</time>
      </trkpt>
      <trkpt lat="43.23274" lon="3.17769">
        <ele>56.529017459466</ele>
        <time>2017-05-19T11:22:42Z</time>
      </trkpt>
      <trkpt lat="43.23278" lon="3.17779">
        <ele>56.529017459466</ele>
        <time>2017-05-19T11:23:00Z</time>
      </trkpt>
      <trkpt lat="43.23281" lon="3.1781">
        <ele>55.079405200731</ele>
        <time>2017-05-19T11:23:13Z</time>
      </trkpt>
      <trkpt lat="43.23281" lon="3.17813">
        <ele>55.079405200731</ele>
        <time>2017-05-19T11:23:16Z</time>
      </trkpt>
      <trkpt lat="43.23291" lon="3.17854">
        <ele>53.774909301131</ele>
        <time>2017-05-19T11:23:52Z</time>
      </trkpt>
      <trkpt lat="43.23296" lon="3.17865">
        <ele>52.592188162111</ele>
        <time>2017-05-19T11:23:52Z</time>
      </trkpt>
      <trkpt lat="43.23302" lon="3.17878">
        <ele>51.58131116923</ele>
        <time>2017-05-19T11:24:01Z</time>
      </trkpt>
      <trkpt lat="43.23316" lon="3.17914">
        <ele>51.119623686539</ele>
        <time>2017-05-19T11:24:32Z</time>
      </trkpt>
      <trkpt lat="43.23328" lon="3.17966">
        <ele>51.03639156376</ele>
        <time>2017-05-19T11:25:49Z</time>
      </trkpt>
      <trkpt lat="43.23346" lon="3.17992">
        <ele>50.840888659796</ele>
        <time>2017-05-19T11:26:39Z</time>
      </trkpt>
      <trkpt lat="43.23349" lon="3.18">
        <ele>50.840888659796</ele>
        <time>2017-05-19T11:26:39Z</time>
      </trkpt>
      <trkpt lat="43.23356" lon="3.18009">
        <ele>50.669595685729</ele>
        <time>2017-05-19T11:26:48Z</time>
      </trkpt>
      <trkpt lat="43.23363" lon="3.18015">
        <ele>50.669595685729</ele>
        <time>2017-05-19T11:27:00Z</time>
      </trkpt>
      <trkpt lat="43.23364" lon="3.18016">
        <ele>50.475959170902</ele>
        <time>2017-05-19T11:27:04Z</time>
      </trkpt>
      <trkpt lat="43.23372" lon="3.18024">
        <ele>50.216906138923</ele>
        <time>2017-05-19T11:27:21Z</time>
      </trkpt>
      <trkpt lat="43.23374" lon="3.18028">
        <ele>50.216906138923</ele>
        <time>2017-05-19T11:27:26Z</time>
      </trkpt>
      <trkpt lat="43.2338" lon="3.1804">
        <ele>49.809480129429</ele>
        <time>2017-05-19T11:27:47Z</time>
      </trkpt>
      <trkpt lat="43.23383" lon="3.18044">
        <ele>49.809480129429</ele>
        <time>2017-05-19T11:27:48Z</time>
      </trkpt>
      <trkpt lat="43.23384" lon="3.18046">
        <ele>49.809480129429</ele>
        <time>2017-05-19T11:28:00Z</time>
      </trkpt>
      <trkpt lat="43.23387" lon="3.18052">
        <ele>49.350173936632</ele>
        <time>2017-05-19T11:28:05Z</time>
      </trkpt>
      <trkpt lat="43.23415" lon="3.18094">
        <ele>48.697967709968</ele>
        <time>2017-05-19T11:28:57Z</time>
      </trkpt>
      <trkpt lat="43.2342" lon="3.18099">
        <ele>48.697967709968</ele>
        <time>2017-05-19T11:28:57Z</time>
      </trkpt>
      <trkpt lat="43.23426" lon="3.18117">
        <ele>47.996562449489</ele>
        <time>2017-05-19T11:29:22Z</time>
      </trkpt>
      <trkpt lat="43.23426" lon="3.18126">
        <ele>47.996562449489</ele>
        <time>2017-05-19T11:29:23Z</time>
      </trkpt>
      <trkpt lat="43.2343" lon="3.18137">
        <ele>47.105439059079</ele>
        <time>2017-05-19T11:29:58Z</time>
      </trkpt>
      <trkpt lat="43.23434" lon="3.18153">
        <ele>46.356097588811</ele>
        <time>2017-05-19T11:30:03Z</time>
      </trkpt>
      <trkpt lat="43.23443" lon="3.18209">
        <ele>45.839129847136</ele>
        <time>2017-05-19T11:30:53Z</time>
      </trkpt>
      <trkpt lat="43.23443" lon="3.18214">
        <ele>45.839129847136</ele>
        <time>2017-05-19T11:30:53Z</time>
      </trkpt>
      <trkpt lat="43.23444" lon="3.18222">
        <ele>45.479306476762</ele>
        <time>2017-05-19T11:31:00Z</time>
      </trkpt>
      <trkpt lat="43.23445" lon="3.18223">
        <ele>45.479306476762</ele>
        <time>2017-05-19T11:31:01Z</time>
      </trkpt>
      <trkpt lat="43.23455" lon="3.18253">
        <ele>45.220903172997</ele>
        <time>2017-05-19T11:31:29Z</time>
      </trkpt>
      <trkpt lat="43.23455" lon="3.18254">
        <ele>45.220903172997</ele>
        <time>2017-05-19T11:31:31Z</time>
      </trkpt>
      <trkpt lat="43.23459" lon="3.18263">
        <ele>45.220903172997</ele>
        <time>2017-05-19T11:31:45Z</time>
      </trkpt>
      <trkpt lat="43.23459" lon="3.18266">
        <ele>44.954370270141</ele>
        <time>2017-05-19T11:31:46Z</time>
      </trkpt>
      <trkpt lat="43.23463" lon="3.18282">
        <ele>44.722352078894</ele>
        <time>2017-05-19T11:32:09Z</time>
      </trkpt>
      <trkpt lat="43.23471" lon="3.18299">
        <ele>44.593101049635</ele>
        <time>2017-05-19T11:32:25Z</time>
      </trkpt>
      <trkpt lat="43.23482" lon="3.18333">
        <ele>44.298129816997</ele>
        <time>2017-05-19T11:33:00Z</time>
      </trkpt>
      <trkpt lat="43.23483" lon="3.1835">
        <ele>43.848558995434</ele>
        <time>2017-05-19T11:33:19Z</time>
      </trkpt>
      <trkpt lat="43.23484" lon="3.18369">
        <ele>43.1686805401</ele>
        <time>2017-05-19T11:33:45Z</time>
      </trkpt>
      <trkpt lat="43.23485" lon="3.18388">
        <ele>42.506060032586</ele>
        <time>2017-05-19T11:34:01Z</time>
      </trkpt>
      <trkpt lat="43.23487" lon="3.18394">
        <ele>42.506060032586</ele>
        <time>2017-05-19T11:34:18Z</time>
      </trkpt>
      <trkpt lat="43.23492" lon="3.18402">
        <ele>41.369492655819</ele>
        <time>2017-05-19T11:34:59Z</time>
      </trkpt>
      <trkpt lat="43.23489" lon="3.18413">
        <ele>41.369492655819</ele>
        <time>2017-05-19T11:35:43Z</time>
      </trkpt>
      <trkpt lat="43.23489" lon="3.18414">
        <ele>40.371626672455</ele>
        <time>2017-05-19T11:35:46Z</time>
      </trkpt>
      <trkpt lat="43.23484" lon="3.18437">
        <ele>39.301529783842</ele>
        <time>2017-05-19T11:36:03Z</time>
      </trkpt>
      <trkpt lat="43.2346" lon="3.18509">
        <ele>37.819864874234</ele>
        <time>2017-05-19T11:36:58Z</time>
      </trkpt>
      <trkpt lat="43.23459" lon="3.18513">
        <ele>37.819864874234</ele>
        <time>2017-05-19T11:37:01Z</time>
      </trkpt>
      <trkpt lat="43.23457" lon="3.1853">
        <ele>36.333935901087</ele>
        <time>2017-05-19T11:37:20Z</time>
      </trkpt>
      <trkpt lat="43.23457" lon="3.18542">
        <ele>36.333935901087</ele>
        <time>2017-05-19T11:37:20Z</time>
      </trkpt>
      <trkpt lat="43.23459" lon="3.18582">
        <ele>34.774390912016</ele>
        <time>2017-05-19T11:37:58Z</time>
      </trkpt>
      <trkpt lat="43.23459" lon="3.18583">
        <ele>34.774390912016</ele>
        <time>2017-05-19T11:38:06Z</time>
      </trkpt>
    </trkseg>
  </trk>
</gpx>